Time;durP1;ratioP1;P1;durP2;ratioP2;P2;SDS_P1;SDS_P2;PMS_P1;PMS_P2;Temp;Humidity;BMP_temperature;BMP_pressure;BME280_temperature;BME280_humidity;BME280_pressure;Samples;Min_cycle;Max_cycle;Signal;HPM_P1;HPM_P2
2023/03/17 00:00:40;;;;;;;6.50;4.45;;;;;;;;;;8243290;28;20307;-77
2023/03/17 00:04:40;;;;;;;6.35;3.80;;;;;;;;;;8240329;28;20873;-77
2023/03/17 00:08:41;;;;;;;18.02;7.20;;;;;;;;;;8245935;28;20084;-77
2023/03/17 00:12:42;;;;;;;7.47;4.55;;;;;;;;;;8260354;28;20062;-77
2023/03/17 00:16:44;;;;;;;4.72;3.92;;;;;;;;;;8248520;28;20038;-77
2023/03/17 00:20:45;;;;;;;6.15;3.85;;;;;;;;;;8244451;28;20018;-77
2023/03/17 00:24:45;;;;;;;5.50;3.40;;;;;;;;;;8253496;28;20034;-77
2023/03/17 00:28:46;;;;;;;6.90;3.90;;;;;;;;;;8243802;28;20498;-77
2023/03/17 00:32:47;;;;;;;8.33;4.00;;;;;;;;;;8240257;28;20053;-77
2023/03/17 00:36:48;;;;;;;4.47;3.67;;;;;;;;;;8242777;28;20285;-78
2023/03/17 00:40:49;;;;;;;7.32;4.18;;;;;;;;;;8242302;28;20045;-77
2023/03/17 00:44:50;;;;;;;5.82;3.70;;;;;;;;;;8242880;28;20816;-77
2023/03/17 00:48:50;;;;;;;5.70;3.65;;;;;;;;;;8239774;28;20034;-77
2023/03/17 00:52:51;;;;;;;5.53;4.15;;;;;;;;;;8247115;28;20802;-77
2023/03/17 00:56:51;;;;;;;8.70;4.68;;;;;;;;;;8245092;28;20057;-77
2023/03/17 01:00:52;;;;;;;13.23;5.78;;;;;;;;;;8245307;28;20037;-77
2023/03/17 01:04:52;;;;;;;10.45;5.85;;;;;;;;;;8242616;28;21050;-77
2023/03/17 01:08:54;;;;;;;8.37;4.40;;;;;;;;;;8241400;28;20088;-77
2023/03/17 01:12:56;;;;;;;8.75;5.28;;;;;;;;;;8241019;28;20320;-77
2023/03/17 01:16:57;;;;;;;7.72;4.57;;;;;;;;;;8240329;28;20138;-77
2023/03/17 01:20:57;;;;;;;4.70;3.67;;;;;;;;;;8239042;28;20050;-77
2023/03/17 01:24:57;;;;;;;7.22;4.03;;;;;;;;;;8237038;28;20846;-77
2023/03/17 01:28:57;;;;;;;5.20;4.13;;;;;;;;;;8238344;28;20141;-77
2023/03/17 01:32:58;;;;;;;7.13;4.07;;;;;;;;;;8236241;28;20065;-77
2023/03/17 01:36:58;;;;;;;5.78;4.10;;;;;;;;;;8237647;28;20487;-77
2023/03/17 01:41:00;;;;;;;11.98;6.63;;;;;;;;;;8248466;28;20165;-77
2023/03/17 01:45:01;;;;;;;9.55;4.78;;;;;;;;;;8247505;28;20022;-77
2023/03/17 01:49:08;;;;;;;7.63;4.50;;;;;;;;;;8245211;28;20125;-77
2023/03/17 01:53:08;;;;;;;8.18;4.82;;;;;;;;;;8258084;28;20447;-77
2023/03/17 01:57:15;;;;;;;10.07;5.10;;;;;;;;;;8245023;28;20037;-78
2023/03/17 02:01:16;;;;;;;8.30;5.13;;;;;;;;;;8243676;28;20038;-77
2023/03/17 02:05:18;;;;;;;8.38;4.72;;;;;;;;;;8247846;28;20133;-77
2023/03/17 02:09:19;;;;;;;6.85;4.78;;;;;;;;;;8245714;28;20031;-77
2023/03/17 02:13:19;;;;;;;8.70;5.28;;;;;;;;;;8245883;28;20079;-77
2023/03/17 02:17:20;;;;;;;8.57;5.35;;;;;;;;;;8243626;28;20513;-77
2023/03/17 02:21:56;;;;;;;8.48;4.50;;;;;;;;;;8243340;28;20022;-77
2023/03/17 02:25:57;;;;;;;5.10;3.85;;;;;;;;;;8187468;28;20132;-77
2023/03/17 02:29:58;;;;;;;6.57;4.25;;;;;;;;;;8240706;28;20073;-77
2023/03/17 02:33:59;;;;;;;7.03;3.65;;;;;;;;;;8240350;28;20038;-77
2023/03/17 02:37:59;;;;;;;6.03;4.20;;;;;;;;;;8252575;28;20038;-77
2023/03/17 02:42:00;;;;;;;5.20;3.90;;;;;;;;;;8240315;28;20022;-77
2023/03/17 02:46:00;;;;;;;5.85;3.83;;;;;;;;;;8242121;28;20702;-77
2023/03/17 02:50:00;;;;;;;4.93;3.28;;;;;;;;;;8240143;28;20147;-77
2023/03/17 02:54:01;;;;;;;5.55;4.00;;;;;;;;;;8240866;28;20125;-77
2023/03/17 02:58:02;;;;;;;4.13;3.38;;;;;;;;;;8239005;28;20035;-78
2023/03/17 03:02:02;;;;;;;6.95;4.10;;;;;;;;;;8242957;28;20129;-77
2023/03/17 03:06:03;;;;;;;4.95;3.75;;;;;;;;;;8245998;28;20058;-77
2023/03/17 03:10:04;;;;;;;4.97;3.60;;;;;;;;;;8244361;28;20026;-77
2023/03/17 03:14:04;;;;;;;9.38;3.75;;;;;;;;;;8246992;28;20026;-77
2023/03/17 03:18:05;;;;;;;4.10;3.42;;;;;;;;;;8238218;28;20893;-77
2023/03/17 03:22:05;;;;;;;5.40;3.40;;;;;;;;;;8241389;28;20053;-77
2023/03/17 03:26:05;;;;;;;6.70;3.92;;;;;;;;;;8240676;28;20281;-77
2023/03/17 03:30:07;;;;;;;4.55;3.63;;;;;;;;;;8243418;28;20779;-78
2023/03/17 03:34:07;;;;;;;5.75;3.97;;;;;;;;;;8240039;28;20024;-77
2023/03/17 03:38:08;;;;;;;5.95;4.45;;;;;;;;;;8242122;28;20061;-77
2023/03/17 03:42:08;;;;;;;4.47;3.42;;;;;;;;;;8241717;28;20108;-77
2023/03/17 03:46:08;;;;;;;4.03;3.17;;;;;;;;;;8238672;28;20462;-77
2023/03/17 03:50:09;;;;;;;5.28;4.10;;;;;;;;;;8240349;28;20723;-77
2023/03/17 03:54:09;;;;;;;6.93;4.57;;;;;;;;;;8238624;28;20026;-76
2023/03/17 03:58:10;;;;;;;6.90;4.38;;;;;;;;;;8242601;28;20029;-77
2023/03/17 04:02:11;;;;;;;6.65;3.83;;;;;;;;;;8239472;28;20046;-77
2023/03/17 04:06:11;;;;;;;5.53;3.55;;;;;;;;;;8238360;28;20543;-77
2023/03/17 04:10:13;;;;;;;4.20;3.20;;;;;;;;;;8244478;28;20017;-77
2023/03/17 04:14:13;;;;;;;4.68;3.40;;;;;;;;;;8239233;28;20266;-77
2023/03/17 04:18:13;;;;;;;25.23;11.82;;;;;;;;;;8237154;28;20034;-77
2023/03/17 04:22:14;;;;;;;17.13;7.47;;;;;;;;;;8239084;28;20104;-77
2023/03/17 04:26:14;;;;;;;20.98;8.07;;;;;;;;;;8236213;28;20127;-77
2023/03/17 04:30:15;;;;;;;5.67;3.90;;;;;;;;;;8239671;28;20022;-77
2023/03/17 04:34:16;;;;;;;4.93;3.45;;;;;;;;;;8235654;28;21119;-77
2023/03/17 04:38:16;;;;;;;3.85;2.97;;;;;;;;;;8237674;28;20133;-77
2023/03/17 04:42:17;;;;;;;5.43;2.90;;;;;;;;;;8238194;28;20050;-77
2023/03/17 04:46:17;;;;;;;7.25;3.00;;;;;;;;;;8239488;28;20088;-77
2023/03/17 04:50:17;;;;;;;4.85;3.00;;;;;;;;;;8238450;28;20368;-77
2023/03/17 04:54:18;;;;;;;4.10;3.63;;;;;;;;;;8240066;28;20044;-77
2023/03/17 04:58:18;;;;;;;10.48;5.50;;;;;;;;;;8237532;28;20514;-77
2023/03/17 05:02:18;;;;;;;5.03;3.95;;;;;;;;;;8238128;28;20092;-77
2023/03/17 05:06:18;;;;;;;5.28;3.70;;;;;;;;;;8238556;28;20601;-77
2023/03/17 05:10:18;;;;;;;3.92;3.10;;;;;;;;;;8235849;28;20406;-77
2023/03/17 05:14:19;;;;;;;4.55;3.33;;;;;;;;;;8240534;28;20130;-77
2023/03/17 05:18:20;;;;;;;7.18;4.05;;;;;;;;;;8243043;28;20046;-77
2023/03/17 05:22:21;;;;;;;6.15;3.70;;;;;;;;;;8241697;28;20018;-77
2023/03/17 05:26:21;;;;;;;5.15;3.55;;;;;;;;;;8244840;28;20026;-77
2023/03/17 05:30:22;;;;;;;5.38;3.70;;;;;;;;;;8245331;28;20018;-77
2023/03/17 05:34:22;;;;;;;4.75;3.70;;;;;;;;;;8242792;28;20786;-77
2023/03/17 05:38:22;;;;;;;4.78;3.67;;;;;;;;;;8243172;28;20496;-77
2023/03/17 05:42:22;;;;;;;6.43;3.60;;;;;;;;;;8247798;28;20030;-77
2023/03/17 05:46:22;;;;;;;4.57;3.85;;;;;;;;;;8242919;28;20346;-77
2023/03/17 05:50:23;;;;;;;5.53;4.05;;;;;;;;;;8243239;28;20898;-77
2023/03/17 05:54:23;;;;;;;7.65;4.47;;;;;;;;;;8245576;28;20030;-76
2023/03/17 05:58:23;;;;;;;5.35;4.03;;;;;;;;;;8249198;28;20037;-77
2023/03/17 06:02:24;;;;;;;6.90;4.45;;;;;;;;;;8244831;28;20041;-76
2023/03/17 06:06:24;;;;;;;6.07;4.60;;;;;;;;;;8243010;28;20053;-76
2023/03/17 06:10:25;;;;;;;6.45;4.80;;;;;;;;;;8258338;28;20023;-79
2023/03/17 06:14:25;;;;;;;5.53;4.28;;;;;;;;;;8245805;28;20030;-78
2023/03/17 06:18:25;;;;;;;7.43;4.60;;;;;;;;;;8242191;28;20053;-78
2023/03/17 06:22:26;;;;;;;7.35;4.53;;;;;;;;;;8244392;28;20037;-79
2023/03/17 06:26:26;;;;;;;6.65;4.53;;;;;;;;;;8241968;28;20072;-79
2023/03/17 06:30:27;;;;;;;5.78;4.22;;;;;;;;;;8243201;28;20056;-79
2023/03/17 06:34:27;;;;;;;5.38;4.45;;;;;;;;;;8242036;28;20048;-78
2023/03/17 06:38:27;;;;;;;6.50;4.40;;;;;;;;;;8243099;28;20458;-78
2023/03/17 06:42:27;;;;;;;8.85;4.60;;;;;;;;;;8245378;28;20045;-79
2023/03/17 06:46:27;;;;;;;5.88;4.20;;;;;;;;;;8242520;28;20034;-79
2023/03/17 06:50:28;;;;;;;9.48;3.85;;;;;;;;;;8242930;28;20038;-79
2023/03/17 06:54:28;;;;;;;7.28;3.80;;;;;;;;;;8243903;28;20068;-79
2023/03/17 06:58:29;;;;;;;8.68;4.70;;;;;;;;;;8244771;28;20026;-79
2023/03/17 07:02:29;;;;;;;15.18;8.15;;;;;;;;;;8242245;28;20764;-79
2023/03/17 07:06:30;;;;;;;14.50;7.60;;;;;;;;;;8240676;28;20026;-79
2023/03/17 07:10:31;;;;;;;13.00;6.15;;;;;;;;;;8239995;28;20022;-79
2023/03/17 07:14:32;;;;;;;8.55;5.25;;;;;;;;;;8233832;28;20925;-79
2023/03/17 07:18:33;;;;;;;8.35;5.90;;;;;;;;;;8241904;28;20042;-79
2023/03/17 07:22:33;;;;;;;9.13;5.22;;;;;;;;;;8241695;28;20144;-79
2023/03/17 07:26:33;;;;;;;10.27;4.90;;;;;;;;;;8240268;28;20503;-79
2023/03/17 07:30:33;;;;;;;5.30;4.03;;;;;;;;;;8242183;28;20121;-79
2023/03/17 07:34:34;;;;;;;4.20;3.60;;;;;;;;;;8236462;28;20056;-79
2023/03/17 07:38:35;;;;;;;4.75;3.50;;;;;;;;;;8240570;28;20314;-79
2023/03/17 07:42:35;;;;;;;5.82;3.40;;;;;;;;;;8243875;28;20029;-79
2023/03/17 07:46:37;;;;;;;5.60;3.33;;;;;;;;;;8240457;28;20073;-80
2023/03/17 07:50:37;;;;;;;8.20;3.65;;;;;;;;;;8239289;28;20747;-80
2023/03/17 07:54:38;;;;;;;4.38;3.45;;;;;;;;;;8241146;28;20033;-80
2023/03/17 07:58:39;;;;;;;5.90;3.30;;;;;;;;;;8239773;28;20030;-83
2023/03/17 08:02:39;;;;;;;11.18;3.85;;;;;;;;;;8239212;28;20285;-82
2023/03/17 08:06:41;;;;;;;6.20;3.50;;;;;;;;;;8243141;28;20629;-82
2023/03/17 08:10:41;;;;;;;6.38;3.65;;;;;;;;;;8239506;28;20107;-82
2023/03/17 08:14:41;;;;;;;3.72;3.30;;;;;;;;;;8257272;28;20681;-81
2023/03/17 08:18:41;;;;;;;4.87;3.30;;;;;;;;;;8238516;28;20038;-81
2023/03/17 08:22:42;;;;;;;7.25;3.80;;;;;;;;;;8242609;28;20018;-82
2023/03/17 08:26:46;;;;;;;5.20;3.38;;;;;;;;;;8243007;28;20038;-81
2023/03/17 08:30:47;;;;;;;8.00;4.05;;;;;;;;;;8242999;28;20294;-81
2023/03/17 08:34:51;;;;;;;6.63;3.60;;;;;;;;;;8244735;28;20049;-82
2023/03/17 08:38:52;;;;;;;;;;;;;;;;;;8240533;28;20201;-83
2023/03/17 08:42:52;;;;;;;5.63;3.53;;;;;;;;;;8239567;28;20055;-82
2023/03/17 08:46:52;;;;;;;5.40;3.53;;;;;;;;;;8239361;28;20069;-82
2023/03/17 08:50:52;;;;;;;5.80;3.65;;;;;;;;;;8250371;28;20354;-82
2023/03/17 08:54:53;;;;;;;7.45;3.78;;;;;;;;;;8238416;28;20830;-82
2023/03/17 08:58:53;;;;;;;6.95;3.60;;;;;;;;;;8243153;28;20084;-81
2023/03/17 09:02:54;;;;;;;6.32;3.17;;;;;;;;;;8236935;28;20145;-82
2023/03/17 09:06:54;;;;;;;6.13;3.30;;;;;;;;;;8238509;28;20026;-82
2023/03/17 09:10:54;;;;;;;7.82;3.33;;;;;;;;;;8236107;28;20026;-83
2023/03/17 09:14:55;;;;;;;5.45;3.40;;;;;;;;;;8238500;28;20017;-82
2023/03/17 09:18:55;;;;;;;6.72;3.50;;;;;;;;;;8248916;28;20550;-82
2023/03/17 09:22:56;;;;;;;5.50;3.20;;;;;;;;;;8241282;28;20021;-81
2023/03/17 09:26:58;;;;;;;6.00;3.20;;;;;;;;;;8233219;28;20053;-82
2023/03/17 09:31:01;;;;;;;3.50;3.20;;;;;;;;;;8247819;28;20372;-82
2023/03/17 09:35:02;;;;;;;3.38;2.90;;;;;;;;;;8243510;28;20042;-82
2023/03/17 09:39:03;;;;;;;6.38;3.17;;;;;;;;;;8240856;28;20667;-81
2023/03/17 09:43:10;;;;;;;5.32;3.20;;;;;;;;;;8236581;28;20760;-81
2023/03/17 09:47:21;;;;;;;5.78;3.35;;;;;;;;;;8241064;28;20461;-82
2023/03/17 09:51:21;;;;;;;5.10;3.20;;;;;;;;;;8232333;28;20032;-81
2023/03/17 09:55:25;;;;;;;4.72;2.78;;;;;;;;;;8233092;28;20025;-81
2023/03/17 09:59:31;;;;;;;5.60;3.42;;;;;;;;;;8236212;28;20808;-87
2023/03/17 10:03:31;;;;;;;10.15;3.28;;;;;;;;;;8243157;28;20034;-86
2023/03/17 10:07:45;;;;;;;4.43;3.42;;;;;;;;;;8241447;28;20030;-84
2023/03/17 10:11:47;;;;;;;5.40;3.67;;;;;;;;;;8241666;28;20018;-90
2023/03/17 10:16:14;;;;;;;6.15;3.53;;;;;;;;;;8246354;28;20964;-86
2023/03/17 10:20:14;;;;;;;4.32;3.30;;;;;;;;;;8244242;28;20709;-87
2023/03/17 10:24:15;;;;;;;7.63;4.55;;;;;;;;;;8242580;28;20018;-85
2023/03/17 10:28:18;;;;;;;5.47;3.42;;;;;;;;;;8240265;28;20033;-86
2023/03/17 10:32:18;;;;;;;4.72;3.65;;;;;;;;;;8254462;28;20034;-84
2023/03/17 10:36:31;;;;;;;4.40;3.42;;;;;;;;;;8240385;28;20033;-86
2023/03/17 10:40:31;;;;;;;8.00;3.88;;;;;;;;;;8240832;28;20037;-82
2023/03/17 10:44:39;;;;;;;3.67;3.37;;;;;;;;;;8238029;28;20030;-86
2023/03/17 10:48:40;;;;;;;5.78;3.60;;;;;;;;;;8240140;28;21107;-81
2023/03/17 10:52:41;;;;;;;6.88;4.35;;;;;;;;;;8241887;28;20026;-80
2023/03/17 10:56:41;;;;;;;7.63;3.92;;;;;;;;;;8238924;28;20029;-83
2023/03/17 11:00:51;;;;;;;5.38;4.07;;;;;;;;;;8233735;28;20061;-84
2023/03/17 11:04:59;;;;;;;4.90;4.07;;;;;;;;;;8237271;28;20559;-84
2023/03/17 11:09:04;;;;;;;6.30;3.85;;;;;;;;;;8242085;28;20590;-82
2023/03/17 11:13:05;;;;;;;4.78;3.63;;;;;;;;;;8243845;28;20034;-82
2023/03/17 11:17:26;;;;;;;7.13;3.92;;;;;;;;;;8236336;28;20130;-83
2023/03/17 11:21:28;;;;;;;4.20;3.80;;;;;;;;;;8231693;28;20022;-82
2023/03/17 11:25:30;;;;;;;7.40;3.50;;;;;;;;;;8242436;28;20022;-82
2023/03/17 11:29:49;;;;;;;5.25;4.30;;;;;;;;;;8237953;28;20396;-82
2023/03/17 11:34:00;;;;;;;5.28;3.92;;;;;;;;;;8232386;28;20026;-83
2023/03/17 11:38:11;;;;;;;5.80;3.95;;;;;;;;;;8240551;28;20034;-82
2023/03/17 11:42:15;;;;;;;6.07;3.88;;;;;;;;;;8240679;28;20029;-83
2023/03/17 11:46:19;;;;;;;4.97;4.30;;;;;;;;;;8240624;28;20049;-84
2023/03/17 11:50:23;;;;;;;11.60;5.15;;;;;;;;;;8237531;28;20041;-82
2023/03/17 11:54:30;;;;;;;9.88;4.63;;;;;;;;;;8237122;28;20898;-81
2023/03/17 11:58:40;;;;;;;8.70;4.47;;;;;;;;;;8233640;28;20111;-83
2023/03/17 12:02:43;;;;;;;5.38;4.18;;;;;;;;;;8238592;28;20045;-82
2023/03/17 12:06:46;;;;;;;6.47;4.18;;;;;;;;;;8238933;28;20029;-82
2023/03/17 12:10:50;;;;;;;7.55;4.50;;;;;;;;;;8236914;28;20483;-82
2023/03/17 12:14:52;;;;;;;7.05;4.35;;;;;;;;;;8238660;28;20084;-82
2023/03/17 12:18:56;;;;;;;5.28;4.40;;;;;;;;;;8232781;28;20494;-81
2023/03/17 12:23:19;;;;;;;7.30;4.10;;;;;;;;;;8251432;28;20021;-82
2023/03/17 12:27:28;;;;;;;5.35;4.30;;;;;;;;;;8240027;28;20130;-81
2023/03/17 12:31:33;;;;;;;7.47;3.90;;;;;;;;;;8237274;28;20034;-81
2023/03/17 12:35:37;;;;;;;6.80;3.72;;;;;;;;;;8238333;28;20057;-81
2023/03/17 12:39:41;;;;;;;8.80;4.20;;;;;;;;;;8240225;28;20053;-85
2023/03/17 12:43:41;;;;;;;7.70;4.53;;;;;;;;;;8237401;28;20042;-80
2023/03/17 12:47:41;;;;;;;7.20;4.32;;;;;;;;;;8236847;28;20046;-88
2023/03/17 12:51:42;;;;;;;6.05;4.13;;;;;;;;;;8237641;28;20751;-86
2023/03/17 12:55:44;;;;;;;9.93;4.50;;;;;;;;;;8238761;28;20018;-81
2023/03/17 12:59:46;;;;;;;7.40;4.00;;;;;;;;;;8238115;28;20013;-79
2023/03/17 13:04:05;;;;;;;7.20;3.90;;;;;;;;;;8233413;28;21369;-79
2023/03/17 13:08:09;;;;;;;6.03;4.13;;;;;;;;;;8234100;28;20670;-79
2023/03/17 13:12:09;;;;;;;;;;;;;;;;;;8234471;28;20014;-78
2023/03/17 13:16:29;;;;;;;5.78;4.13;;;;;;;;;;8247961;28;20634;-78
2023/03/17 13:20:36;;;;;;;7.30;4.30;;;;;;;;;;8235254;28;20026;-79
2023/03/17 13:24:40;;;;;;;5.70;3.85;;;;;;;;;;8234329;28;20064;-78
2023/03/17 13:28:43;;;;;;;6.13;4.20;;;;;;;;;;8233312;28;20034;-78
2023/03/17 13:32:53;;;;;;;5.35;4.20;;;;;;;;;;8236001;28;21488;-78
2023/03/17 13:36:57;;;;;;;5.40;4.43;;;;;;;;;;8239707;28;20060;-78
2023/03/17 13:41:14;;;;;;;4.78;4.28;;;;;;;;;;8239429;28;21067;-79
2023/03/17 13:45:36;;;;;;;10.52;4.50;;;;;;;;;;8240538;28;20100;-78
2023/03/17 13:49:36;;;;;;;8.65;4.38;;;;;;;;;;8254964;28;20025;-78
2023/03/17 13:53:43;;;;;;;6.13;4.50;;;;;;;;;;8238295;28;20018;-78
2023/03/17 13:57:52;;;;;;;7.05;4.13;;;;;;;;;;8237322;28;20033;-78
2023/03/17 14:01:55;;;;;;;10.32;5.82;;;;;;;;;;8239393;28;20557;-78
2023/03/17 14:05:56;;;;;;;9.23;6.43;;;;;;;;;;8236648;28;20093;-79
2023/03/17 14:10:01;;;;;;;13.60;9.18;;;;;;;;;;8254706;28;20026;-78
2023/03/17 14:14:17;;;;;;;9.65;5.97;;;;;;;;;;8235958;28;20657;-79
2023/03/17 14:18:18;;;;;;;8.18;5.68;;;;;;;;;;8241155;28;20070;-76
2023/03/17 14:22:20;;;;;;;18.10;9.57;;;;;;;;;;8239536;28;20093;-76
2023/03/17 14:26:22;;;;;;;11.77;5.00;;;;;;;;;;8240941;28;20127;-77
2023/03/17 14:30:23;;;;;;;13.07;8.85;;;;;;;;;;8238696;28;21214;-77
2023/03/17 14:34:24;;;;;;;20.70;13.45;;;;;;;;;;8245107;28;20459;-77
2023/03/17 14:38:26;;;;;;;10.15;6.18;;;;;;;;;;8240710;28;20022;-76
2023/03/17 14:42:27;;;;;;;24.95;19.45;;;;;;;;;;8242119;28;20041;-78
2023/03/17 14:46:28;;;;;;;16.60;11.95;;;;;;;;;;8237458;28;20056;-77
2023/03/17 14:50:29;;;;;;;9.93;7.03;;;;;;;;;;8241099;28;20034;-77
2023/03/17 14:54:33;;;;;;;5.60;4.43;;;;;;;;;;8239164;28;20026;-77
2023/03/17 14:58:41;;;;;;;6.00;4.28;;;;;;;;;;8239007;28;20022;-77
2023/03/17 15:02:52;;;;;;;5.88;4.22;;;;;;;;;;8239243;28;20049;-77
2023/03/17 15:06:53;;;;;;;6.25;4.72;;;;;;;;;;8241164;28;20129;-77
2023/03/17 15:10:56;;;;;;;7.50;4.53;;;;;;;;;;8238898;28;20057;-77
2023/03/17 15:14:59;;;;;;;8.63;4.80;;;;;;;;;;8247126;28;20640;-77
2023/03/17 15:19:07;;;;;;;8.98;5.00;;;;;;;;;;8240649;28;20041;-77
2023/03/17 15:23:17;;;;;;;8.50;5.15;;;;;;;;;;8243115;28;20034;-77
2023/03/17 15:27:17;;;;;;;11.93;5.22;;;;;;;;;;8242261;28;20022;-77
2023/03/17 15:31:22;;;;;;;12.10;5.13;;;;;;;;;;8239418;28;20037;-77
2023/03/17 15:35:22;;;;;;;7.65;4.97;;;;;;;;;;8240526;28;20038;-77
2023/03/17 15:39:22;;;;;;;6.40;5.00;;;;;;;;;;8239605;28;20096;-77
2023/03/17 15:43:22;;;;;;;7.90;4.80;;;;;;;;;;8243581;28;20033;-77
2023/03/17 15:47:25;;;;;;;6.60;4.63;;;;;;;;;;8238601;28;20038;-78
2023/03/17 15:51:25;;;;;;;5.88;4.57;;;;;;;;;;8241742;28;20026;-77
2023/03/17 15:55:28;;;;;;;6.35;4.78;;;;;;;;;;8256104;28;20037;-77
2023/03/17 15:59:28;;;;;;;10.80;5.53;;;;;;;;;;8238143;28;20041;-77
2023/03/17 16:03:30;;;;;;;8.05;4.75;;;;;;;;;;8240378;28;20049;-76
2023/03/17 16:07:32;;;;;;;6.82;4.60;;;;;;;;;;8239236;28;20026;-77
2023/03/17 16:11:32;;;;;;;8.07;5.07;;;;;;;;;;8240602;28;20368;-77
2023/03/17 16:15:35;;;;;;;9.88;4.90;;;;;;;;;;8240455;28;20038;-77
2023/03/17 16:19:36;;;;;;;12.00;4.82;;;;;;;;;;8239433;28;20434;-77
2023/03/17 16:23:36;;;;;;;6.10;4.45;;;;;;;;;;8239795;28;20100;-77
2023/03/17 16:27:36;;;;;;;6.78;5.28;;;;;;;;;;8235449;28;20034;-77
2023/03/17 16:31:36;;;;;;;7.65;5.90;;;;;;;;;;8238956;28;20609;-77
2023/03/17 16:35:36;;;;;;;8.25;5.18;;;;;;;;;;8238924;28;20022;-77
2023/03/17 16:39:38;;;;;;;8.82;4.90;;;;;;;;;;8243298;28;20030;-78
2023/03/17 16:43:41;;;;;;;8.70;4.95;;;;;;;;;;8239975;28;20049;-77
2023/03/17 16:47:41;;;;;;;9.07;5.20;;;;;;;;;;8236029;28;20041;-77
2023/03/17 16:51:41;;;;;;;7.85;5.35;;;;;;;;;;8251565;28;20068;-77
2023/03/17 16:55:42;;;;;;;6.80;4.97;;;;;;;;;;8247553;28;20034;-77
2023/03/17 16:59:42;;;;;;;7.55;5.40;;;;;;;;;;8237438;28;20022;-77
2023/03/17 17:03:42;;;;;;;10.98;5.45;;;;;;;;;;8238813;28;20041;-78
2023/03/17 17:07:43;;;;;;;8.73;5.00;;;;;;;;;;8235959;28;20137;-78
2023/03/17 17:11:43;;;;;;;8.13;5.60;;;;;;;;;;8256300;28;20018;-77
2023/03/17 17:15:44;;;;;;;10.82;5.93;;;;;;;;;;8249993;28;20039;-79
2023/03/17 17:19:44;;;;;;;9.07;5.88;;;;;;;;;;8247603;28;20026;-77
2023/03/17 17:23:45;;;;;;;13.27;6.30;;;;;;;;;;8248081;28;20466;-77
2023/03/17 17:27:46;;;;;;;9.18;6.40;;;;;;;;;;8249583;28;20125;-77
2023/03/17 17:31:46;;;;;;;6.97;5.18;;;;;;;;;;8249609;28;20420;-77
2023/03/17 17:35:47;;;;;;;8.20;4.80;;;;;;;;;;8247509;28;20033;-77
2023/03/17 17:39:47;;;;;;;5.60;3.15;;;;;;;;;;8251590;28;20808;-79
2023/03/17 17:43:47;;;;;;;4.53;2.05;;;;;;;;;;8248311;28;20096;-78
2023/03/17 17:47:47;;;;;;;4.57;2.13;;;;;;;;;;8244264;28;20038;-77
2023/03/17 17:51:48;;;;;;;2.60;1.45;;;;;;;;;;8244791;28;20129;-77
2023/03/17 17:55:48;;;;;;;2.63;1.50;;;;;;;;;;8246850;28;20215;-77
2023/03/17 17:59:48;;;;;;;3.15;1.52;;;;;;;;;;8248484;28;20209;-77
2023/03/17 18:03:49;;;;;;;2.65;1.40;;;;;;;;;;8245198;28;20038;-77
2023/03/17 18:07:49;;;;;;;3.25;1.52;;;;;;;;;;8243538;28;20018;-77
2023/03/17 18:11:49;;;;;;;3.87;2.00;;;;;;;;;;8244297;28;20033;-77
2023/03/17 18:15:49;;;;;;;2.83;1.50;;;;;;;;;;8244380;28;20038;-77
2023/03/17 18:19:53;;;;;;;3.05;1.48;;;;;;;;;;8246996;28;20018;-78
2023/03/17 18:23:54;;;;;;;;;;;;;;;;;;8241652;28;20631;-75
2023/03/17 18:27:55;;;;;;;2.33;1.15;;;;;;;;;;8240998;28;19968;-75
2023/03/17 18:31:58;;;;;;;3.92;1.00;;;;;;;;;;8246545;28;20152;-75
2023/03/17 18:35:59;;;;;;;1.20;1.00;;;;;;;;;;8241650;28;20028;-75
2023/03/17 18:39:59;;;;;;;2.50;1.13;;;;;;;;;;8240116;28;20064;-74
2023/03/17 18:43:59;;;;;;;1.70;1.20;;;;;;;;;;8239770;28;20053;-75
2023/03/17 18:47:59;;;;;;;20.48;12.35;;;;;;;;;;8237034;28;20527;-75
2023/03/17 18:52:00;;;;;;;12.25;6.68;;;;;;;;;;8239318;28;20752;-75
2023/03/17 18:56:00;;;;;;;5.35;3.17;;;;;;;;;;8236784;28;20379;-75
2023/03/17 19:00:00;;;;;;;4.47;2.55;;;;;;;;;;8238805;28;20022;-75
2023/03/17 19:04:02;;;;;;;5.75;1.63;;;;;;;;;;8240953;28;20038;-75
2023/03/17 19:08:02;;;;;;;2.97;1.23;;;;;;;;;;8241279;28;20165;-75
2023/03/17 19:12:06;;;;;;;2.40;1.20;;;;;;;;;;8237413;28;20057;-76
2023/03/17 19:16:07;;;;;;;6.57;1.65;;;;;;;;;;8236752;28;20095;-77
2023/03/17 19:20:08;;;;;;;3.63;1.90;;;;;;;;;;8251584;28;20023;-76
2023/03/17 19:24:09;;;;;;;6.15;3.00;;;;;;;;;;8233354;28;20038;-76
2023/03/17 19:28:09;;;;;;;4.20;1.65;;;;;;;;;;8235071;28;20083;-76
2023/03/17 19:32:09;;;;;;;4.13;1.88;;;;;;;;;;8234995;28;20041;-76
2023/03/17 19:36:11;;;;;;;4.10;1.55;;;;;;;;;;8235747;28;20029;-76
2023/03/17 19:40:12;;;;;;;2.22;1.25;;;;;;;;;;8238364;28;20033;-76
2023/03/17 19:44:12;;;;;;;2.80;0.98;;;;;;;;;;8235284;28;20019;-76
2023/03/17 19:48:12;;;;;;;1.38;0.90;;;;;;;;;;8232966;28;20204;-76
2023/03/17 19:52:12;;;;;;;2.70;1.05;;;;;;;;;;8233203;28;20068;-75
2023/03/17 19:56:12;;;;;;;1.92;1.00;;;;;;;;;;8233271;28;20058;-76
2023/03/17 20:00:13;;;;;;;1.50;0.98;;;;;;;;;;8229763;28;20092;-76
2023/03/17 20:04:16;;;;;;;2.70;1.00;;;;;;;;;;8231357;28;21091;-75
2023/03/17 20:08:18;;;;;;;2.30;1.27;;;;;;;;;;8234843;28;20140;-76
2023/03/17 20:12:18;;;;;;;3.22;1.00;;;;;;;;;;8231838;28;20403;-76
2023/03/17 20:16:19;;;;;;;1.20;0.90;;;;;;;;;;8232602;28;20068;-75
2023/03/17 20:20:19;;;;;;;2.47;0.93;;;;;;;;;;8238274;28;20754;-75
2023/03/17 20:24:19;;;;;;;1.20;0.85;;;;;;;;;;8232419;28;20280;-75
2023/03/17 20:28:23;;;;;;;4.25;1.38;;;;;;;;;;8235189;28;20698;-78
2023/03/17 20:32:23;;;;;;;1.90;1.10;;;;;;;;;;8235147;28;20038;-76
2023/03/17 20:36:23;;;;;;;3.70;1.40;;;;;;;;;;8231803;28;20021;-76
2023/03/17 20:40:25;;;;;;;3.03;0.98;;;;;;;;;;8232151;28;20340;-77
2023/03/17 20:44:25;;;;;;;2.78;1.05;;;;;;;;;;8241247;28;20026;-75
2023/03/17 20:48:25;;;;;;;2.40;1.00;;;;;;;;;;8244559;28;20049;-75
2023/03/17 20:52:26;;;;;;;4.57;2.13;;;;;;;;;;8232208;28;20109;-75
2023/03/17 20:56:29;;;;;;;3.85;1.85;;;;;;;;;;8234392;28;20152;-75
2023/03/17 21:00:30;;;;;;;3.45;1.45;;;;;;;;;;8237581;28;20087;-76
2023/03/17 21:04:30;;;;;;;2.25;1.50;;;;;;;;;;8233654;28;20862;-75
2023/03/17 21:08:32;;;;;;;3.27;1.00;;;;;;;;;;8229481;28;20029;-75
2023/03/17 21:12:32;;;;;;;2.78;1.48;;;;;;;;;;8235260;28;20268;-75
2023/03/17 21:16:33;;;;;;;7.05;2.38;;;;;;;;;;8248409;28;20715;-76
2023/03/17 21:20:33;;;;;;;10.00;5.10;;;;;;;;;;8231759;28;20499;-75
2023/03/17 21:24:34;;;;;;;6.93;3.78;;;;;;;;;;8246111;28;20062;-75
2023/03/17 21:28:35;;;;;;;7.38;3.38;;;;;;;;;;8230889;28;20181;-75
2023/03/17 21:32:35;;;;;;;5.78;3.03;;;;;;;;;;8231703;28;20068;-75
2023/03/17 21:36:35;;;;;;;4.97;2.63;;;;;;;;;;8230412;28;20048;-75
2023/03/17 21:40:36;;;;;;;6.97;3.10;;;;;;;;;;8245519;28;20538;-75
2023/03/17 21:44:36;;;;;;;5.47;2.83;;;;;;;;;;8233027;28;20022;-75
2023/03/17 21:48:37;;;;;;;4.82;2.58;;;;;;;;;;8233419;28;20038;-75
2023/03/17 21:52:38;;;;;;;8.43;1.75;;;;;;;;;;8234811;28;20068;-75
2023/03/17 21:56:39;;;;;;;2.65;1.35;;;;;;;;;;8237398;28;20049;-75
2023/03/17 22:00:39;;;;;;;3.35;1.35;;;;;;;;;;8244633;28;20902;-75
2023/03/17 22:04:40;;;;;;;3.50;1.10;;;;;;;;;;8241097;28;20121;-76
2023/03/17 22:08:40;;;;;;;3.08;1.13;;;;;;;;;;8241257;28;20022;-74
2023/03/17 22:12:41;;;;;;;3.30;1.33;;;;;;;;;;8245648;28;20052;-75
2023/03/17 22:16:41;;;;;;;3.55;1.10;;;;;;;;;;8242353;28;20574;-75
2023/03/17 22:20:44;;;;;;;2.05;1.10;;;;;;;;;;8239838;28;20113;-76
2023/03/17 22:24:44;;;;;;;1.58;1.02;;;;;;;;;;8237002;28;20144;-75
2023/03/17 22:28:46;;;;;;;5.35;1.40;;;;;;;;;;8245045;28;20062;-75
2023/03/17 22:32:49;;;;;;;2.45;1.02;;;;;;;;;;8243458;28;20037;-75
2023/03/17 22:36:50;;;;;;;2.40;1.20;;;;;;;;;;8238022;28;20725;-75
2023/03/17 22:41:19;;;;;;;2.67;1.30;;;;;;;;;;8233924;28;20080;-75
2023/03/17 22:45:19;;;;;;;3.65;1.33;;;;;;;;;;8226157;28;20053;-75
2023/03/17 22:49:20;;;;;;;3.83;1.30;;;;;;;;;;8237043;28;20113;-76
2023/03/17 22:53:20;;;;;;;1.92;1.30;;;;;;;;;;8243927;28;20172;-76
2023/03/17 22:57:21;;;;;;;4.45;1.30;;;;;;;;;;8234417;28;20030;-76
2023/03/17 23:01:23;;;;;;;1.50;1.30;;;;;;;;;;8236499;28;20042;-76
2023/03/17 23:05:24;;;;;;;2.40;1.50;;;;;;;;;;8236577;28;20038;-75
2023/03/17 23:09:25;;;;;;;3.75;1.20;;;;;;;;;;8234189;28;20022;-76
2023/03/17 23:13:26;;;;;;;1.40;1.17;;;;;;;;;;8228799;28;20220;-76
2023/03/17 23:17:27;;;;;;;4.45;2.25;;;;;;;;;;8232141;28;20034;-76
2023/03/17 23:21:32;;;;;;;10.70;4.60;;;;;;;;;;8233703;28;20889;-76
2023/03/17 23:25:32;;;;;;;3.38;1.90;;;;;;;;;;8255377;28;20049;-76
2023/03/17 23:29:32;;;;;;;6.03;1.63;;;;;;;;;;8238997;28;21067;-76
2023/03/17 23:33:33;;;;;;;4.35;1.70;;;;;;;;;;8236814;28;20990;-77
2023/03/17 23:37:34;;;;;;;3.05;1.38;;;;;;;;;;8237646;28;20026;-76
2023/03/17 23:41:35;;;;;;;2.08;1.50;;;;;;;;;;8240843;28;20083;-77
2023/03/17 23:45:35;;;;;;;3.28;1.55;;;;;;;;;;8236598;28;20034;-77
2023/03/17 23:49:35;;;;;;;3.70;1.67;;;;;;;;;;8233239;28;20022;-76
2023/03/17 23:53:35;;;;;;;2.67;1.40;;;;;;;;;;8237893;28;20049;-76
2023/03/17 23:57:36;;;;;;;4.60;1.70;;;;;;;;;;8234596;28;20061;-76
